Asterion — FICK — position and weather

sailwx.info

Track history (hours):
 
Tides and Currents Weather Stations Pressure Air Temp Water Temp Dewpoint Dewpoint Depression Visibility Wind Speed Wind Dir Waves Ship Positions

Asterion

Last reported at 2016-May-05 13:32 UTC. Time now 2016-May-05 14:13 UTC.
Position N 57°41' E 011°53'.

Length 184 m; draft 7 m.

Type: Tanker. MMSI: 226000000.

Date/timePositionNaut miles runAvg speedWind from/ knotsBaromVisibWave heightAir tempDewpointWater temp
2016-May-05 13:32N 57°41' E 011°53'0 0.0
2016-May-05 12:32N 57°41' E 011°53'0 0.0
2016-May-05 11:32N 57°41' E 011°53'0 0.0
2016-May-05 10:32N 57°41' E 011°53'0 0.0
2016-May-05 09:32N 57°41' E 011°53'0 0.0
2016-May-05 08:32N 57°41' E 011°53'0 0.0
2016-May-05 07:32N 57°41' E 011°53'2 2.5
2016-May-05 06:33N 57°41' E 011°48'10 9.8
2016-May-05 05:34N 57°33' E 011°37'0 0.4
2016-May-05 04:31N 57°32' E 011°38'0 0.1
2016-May-05 03:31N 57°32' E 011°38'0 0.0
2016-May-05 02:31N 57°32' E 011°38'0 0.0
2016-May-05 01:31N 57°32' E 011°38'0 0.0
2016-May-05 00:31N 57°33' E 011°38'0 0.0
2016-May-04 23:31N 57°33' E 011°38'0 0.0
2016-May-04 22:31N 57°33' E 011°38'0 0.1
2016-May-04 21:31N 57°32' E 011°38'0 0.0
2016-May-04 20:31N 57°32' E 011°38'0 0.0
2016-May-04 19:31N 57°32' E 011°38'0 0.0
2016-May-04 18:31N 57°32' E 011°38'0 0.0
2016-May-04 17:31N 57°32' E 011°38'0 0.0
2016-May-04 16:31N 57°32' E 011°38'0 0.0
2016-May-04 15:31N 57°32' E 011°38'0 0.0
2016-May-04 14:31N 57°32' E 011°38'0 0.0
2016-May-04 13:31N 57°32' E 011°38'0 0.0
2016-May-04 12:28N 57°32' E 011°38'0 0.0
2016-May-04 11:28N 57°32' E 011°38'0 0.0
2016-May-04 10:31N 57°32' E 011°38'0 0.0
2016-May-04 09:31N 57°32' E 011°38'0 0.0
2016-May-04 08:31N 57°32' E 011°38'0 0.0
2016-May-04 07:31N 57°32' E 011°38'0 0.0
2016-May-04 06:31N 57°32' E 011°38'0 0.0
2016-May-04 05:31N 57°32' E 011°38'0 0.0
2016-May-04 04:31N 57°32' E 011°38'0 0.0
2016-May-04 03:31N 57°32' E 011°38'0 0.0
2016-May-04 02:31N 57°32' E 011°38'0 0.0
2016-May-04 01:28N 57°32' E 011°38'0 0.0
2016-May-04 00:31N 57°33' E 011°38'0 0.0
2016-May-03 23:31N 57°33' E 011°38'0 0.0
2016-May-03 22:31N 57°33' E 011°38'0 0.0
2016-May-03 21:31N 57°33' E 011°38'0 0.1
2016-May-03 20:31N 57°33' E 011°38'0 0.1
2016-May-03 19:31N 57°33' E 011°38'0 0.1
2016-May-03 18:31N 57°32' E 011°38'0 0.0
2016-May-03 17:31N 57°32' E 011°38'0 0.0
2016-May-03 16:31N 57°32' E 011°38'0 0.0
2016-May-03 15:31N 57°32' E 011°38'0 0.0
2016-May-03 14:31N 57°32' E 011°38'0 0.0
2016-May-03 13:28N 57°33' E 011°38'0 0.0
2016-May-03 12:31N 57°33' E 011°38'0 0.1
2016-May-03 11:31N 57°33' E 011°38'0 0.0
2016-May-03 10:31N 57°33' E 011°38'0 0.0
2016-May-03 09:31N 57°33' E 011°38'0 0.0
2016-May-03 08:31N 57°33' E 011°38'0 0.0
2016-May-03 07:31N 57°33' E 011°38'0 0.0
2016-May-03 06:31N 57°33' E 011°38'0 0.0
2016-May-03 05:31N 57°33' E 011°38'0 0.0
2016-May-03 04:31N 57°33' E 011°38'0 0.1
2016-May-03 03:31N 57°33' E 011°38'0 0.0
2016-May-03 02:31N 57°33' E 011°38'0 0.0
2016-May-03 01:31N 57°33' E 011°38'0 0.0
2016-May-03 00:31N 57°33' E 011°38'0 0.0
2016-May-02 23:31N 57°33' E 011°38'0 0.0
2016-May-02 22:31N 57°33' E 011°38'0 0.0
2016-May-02 21:31N 57°33' E 011°38'0 0.0
2016-May-02 20:31N 57°33' E 011°38'0 0.0
2016-May-02 19:31N 57°33' E 011°38'0 0.0
2016-May-02 18:31N 57°33' E 011°38'3 2.6
2016-May-02 17:34N 57°35' E 011°38'10 9.7
2016-May-02 16:34N 57°41' E 011°52'0 0.1
2016-May-02 15:31N 57°41' E 011°53'0 0.0
2016-May-02 14:31N 57°41' E 011°53'0 0.0
2016-May-02 13:31N 57°41' E 011°53'0 0.0
2016-May-02 12:31N 57°41' E 011°53'0 0.0
2016-May-02 11:31N 57°41' E 011°53'0 0.0
2016-May-02 10:31N 57°41' E 011°53'0 0.0
2016-May-02 09:31N 57°41' E 011°53'0 0.0
2016-May-02 08:31N 57°41' E 011°53'0 0.0
2016-May-02 07:31N 57°41' E 011°53'0 0.0
2016-May-02 06:31N 57°41' E 011°53'0 0.0
2016-May-02 05:31N 57°41' E 011°53'0 0.0
2016-May-02 04:31N 57°41' E 011°53'0 0.0
2016-May-02 03:31N 57°41' E 011°53'0 0.0
2016-May-02 02:31N 57°41' E 011°53'0 0.0
2016-May-02 01:31N 57°41' E 011°53'0 0.0
2016-May-02 00:31N 57°41' E 011°53'0 0.0
2016-May-01 23:31N 57°41' E 011°53'0 0.0
2016-May-01 22:31N 57°41' E 011°53'0 0.0
2016-May-01 21:28N 57°41' E 011°53'0 0.0
2016-May-01 20:31N 57°41' E 011°53'0 0.0
2016-May-01 19:31N 57°41' E 011°53'0 0.0
2016-May-01 18:31N 57°41' E 011°53'0 0.0
2016-May-01 17:31N 57°41' E 011°53'0 0.0
2016-May-01 16:31N 57°41' E 011°53'0 0.0
2016-May-01 15:31N 57°41' E 011°53'0 0.0
2016-May-01 14:31N 57°41' E 011°53'0 0.0
2016-May-01 13:31N 57°41' E 011°53'0 0.0
2016-May-01 12:31N 57°41' E 011°53'0 0.0
2016-May-01 11:31N 57°41' E 011°53'0 0.0
2016-May-01 10:31N 57°41' E 011°53'0 0.0
2016-May-01 09:31N 57°41' E 011°53'0 0.0
2016-May-01 08:31N 57°41' E 011°53'0 0.0
2016-May-01 07:31N 57°41' E 011°53'0 0.0
2016-May-01 06:31N 57°41' E 011°53'0 0.0
2016-May-01 05:31N 57°41' E 011°53'0 0.0
2016-May-01 04:31N 57°41' E 011°53'0 0.0
2016-May-01 03:31N 57°41' E 011°53'0 0.0
2016-May-01 02:31N 57°41' E 011°53'0 0.0
2016-May-01 01:31N 57°41' E 011°53'0 0.0
2016-May-01 00:31N 57°41' E 011°53'0 0.0
2016-Apr-30 23:31N 57°41' E 011°53'0 0.0
2016-Apr-30 22:31N 57°41' E 011°53'0 0.0
2016-Apr-30 21:31N 57°41' E 011°53'0 0.0
2016-Apr-30 20:31N 57°41' E 011°53'0 0.0
2016-Apr-30 19:31N 57°41' E 011°53'1 0.7
2016-Apr-30 18:33N 57°41' E 011°52'7 6.8
2016-Apr-30 17:33N 57°37' E 011°41'6 6.1
2016-Apr-30 16:33N 57°36' E 011°30'1110.9
2016-Apr-30 15:33N 57°41' E 011°11'1413.5
2016-Apr-30 14:33N 57°46' E 010°48'1414.4
2016-Apr-30 13:33N 57°47' E 010°21'29213.6
2016-Apr-29 16:06N 54°06' E 004°41'914.0
2016-Apr-29 15:26N 53°57' E 004°37'16214.2
2016-Apr-29 04:03N 51°36' E 002°24'815.3
2016-Apr-29 03:34N 51°31' E 002°16'1514.9
2016-Apr-29 02:33N 51°17' E 002°07'1514.7
2016-Apr-29 01:33N 51°08' E 001°48'1514.8
2016-Apr-29 00:33N 50°57' E 001°32'5413.2
2016-Apr-28 20:30N 50°23' E 000°27'1313.5
2016-Apr-28 19:33N 50°20' E 000°08'1313.3
2016-Apr-28 18:33N 50°17' W 000°13'11613.8
2016-Apr-28 10:09N 49°47' W 003°07'1014.1
2016-Apr-28 09:28N 49°44' W 003°21'4113.9
2016-Apr-28 06:33N 49°50' W 004°23'1414.1
2016-Apr-28 05:33N 49°49' W 004°45'1514.0
2016-Apr-28 04:28N 49°50' W 005°09'1813.7
2016-Apr-28 03:08N 49°52' W 005°37'2910.5
2016-Apr-28 00:24N 50°17' W 005°60'910.3
2016-Apr-27 23:29N 50°26' W 005°57'1414.5
2016-Apr-27 22:33N 50°39' W 005°50'1414.3
2016-Apr-27 21:34N 50°52' W 005°42'1413.9
2016-Apr-27 20:33N 51°05' W 005°34'  
Track history (hours):
 
Tides and Currents Weather Stations Pressure Air Temp Water Temp Dewpoint Dewpoint Depression Visibility Wind Speed Wind Dir Waves Ship Positions

Asterion

Last reported at 2016-May-05 13:32 UTC. Time now 2016-May-05 14:13 UTC.
Position N 57°41' E 011°53'.

Length 184 m; draft 7 m.

Type: Tanker. MMSI: 226000000.

Date/timePositionNaut miles runAvg speedWind from/ knotsBaromVisibWave heightAir tempDewpointWater temp
2016-May-05 13:32N 57°41' E 011°53'0 0.0
2016-May-05 12:32N 57°41' E 011°53'0 0.0
2016-May-05 11:32N 57°41' E 011°53'0 0.0
2016-May-05 10:32N 57°41' E 011°53'0 0.0
2016-May-05 09:32N 57°41' E 011°53'0 0.0
2016-May-05 08:32N 57°41' E 011°53'0 0.0
2016-May-05 07:32N 57°41' E 011°53'2 2.5
2016-May-05 06:33N 57°41' E 011°48'10 9.8
2016-May-05 05:34N 57°33' E 011°37'0 0.4
2016-May-05 04:31N 57°32' E 011°38'0 0.1
2016-May-05 03:31N 57°32' E 011°38'0 0.0
2016-May-05 02:31N 57°32' E 011°38'0 0.0
2016-May-05 01:31N 57°32' E 011°38'0 0.0
2016-May-05 00:31N 57°33' E 011°38'0 0.0
2016-May-04 23:31N 57°33' E 011°38'0 0.0
2016-May-04 22:31N 57°33' E 011°38'0 0.1
2016-May-04 21:31N 57°32' E 011°38'0 0.0
2016-May-04 20:31N 57°32' E 011°38'0 0.0
2016-May-04 19:31N 57°32' E 011°38'0 0.0
2016-May-04 18:31N 57°32' E 011°38'0 0.0
2016-May-04 17:31N 57°32' E 011°38'0 0.0
2016-May-04 16:31N 57°32' E 011°38'0 0.0
2016-May-04 15:31N 57°32' E 011°38'0 0.0
2016-May-04 14:31N 57°32' E 011°38'0 0.0
2016-May-04 13:31N 57°32' E 011°38'0 0.0
2016-May-04 12:28N 57°32' E 011°38'0 0.0
2016-May-04 11:28N 57°32' E 011°38'0 0.0
2016-May-04 10:31N 57°32' E 011°38'0 0.0
2016-May-04 09:31N 57°32' E 011°38'0 0.0
2016-May-04 08:31N 57°32' E 011°38'0 0.0
2016-May-04 07:31N 57°32' E 011°38'0 0.0
2016-May-04 06:31N 57°32' E 011°38'0 0.0
2016-May-04 05:31N 57°32' E 011°38'0 0.0
2016-May-04 04:31N 57°32' E 011°38'0 0.0
2016-May-04 03:31N 57°32' E 011°38'0 0.0
2016-May-04 02:31N 57°32' E 011°38'0 0.0
2016-May-04 01:28N 57°32' E 011°38'0 0.0
2016-May-04 00:31N 57°33' E 011°38'0 0.0
2016-May-03 23:31N 57°33' E 011°38'0 0.0
2016-May-03 22:31N 57°33' E 011°38'0 0.0
2016-May-03 21:31N 57°33' E 011°38'0 0.1
2016-May-03 20:31N 57°33' E 011°38'0 0.1
2016-May-03 19:31N 57°33' E 011°38'0 0.1
2016-May-03 18:31N 57°32' E 011°38'0 0.0
2016-May-03 17:31N 57°32' E 011°38'0 0.0
2016-May-03 16:31N 57°32' E 011°38'0 0.0
2016-May-03 15:31N 57°32' E 011°38'0 0.0
2016-May-03 14:31N 57°32' E 011°38'0 0.0
2016-May-03 13:28N 57°33' E 011°38'0 0.0
2016-May-03 12:31N 57°33' E 011°38'0 0.1
2016-May-03 11:31N 57°33' E 011°38'0 0.0
2016-May-03 10:31N 57°33' E 011°38'0 0.0
2016-May-03 09:31N 57°33' E 011°38'0 0.0
2016-May-03 08:31N 57°33' E 011°38'0 0.0
2016-May-03 07:31N 57°33' E 011°38'0 0.0
2016-May-03 06:31N 57°33' E 011°38'0 0.0
2016-May-03 05:31N 57°33' E 011°38'0 0.0
2016-May-03 04:31N 57°33' E 011°38'0 0.1
2016-May-03 03:31N 57°33' E 011°38'0 0.0
2016-May-03 02:31N 57°33' E 011°38'0 0.0
2016-May-03 01:31N 57°33' E 011°38'0 0.0
2016-May-03 00:31N 57°33' E 011°38'0 0.0
2016-May-02 23:31N 57°33' E 011°38'0 0.0
2016-May-02 22:31N 57°33' E 011°38'0 0.0
2016-May-02 21:31N 57°33' E 011°38'0 0.0
2016-May-02 20:31N 57°33' E 011°38'0 0.0
2016-May-02 19:31N 57°33' E 011°38'0 0.0
2016-May-02 18:31N 57°33' E 011°38'3 2.6
2016-May-02 17:34N 57°35' E 011°38'10 9.7
2016-May-02 16:34N 57°41' E 011°52'0 0.1
2016-May-02 15:31N 57°41' E 011°53'0 0.0
2016-May-02 14:31N 57°41' E 011°53'0 0.0
2016-May-02 13:31N 57°41' E 011°53'0 0.0
2016-May-02 12:31N 57°41' E 011°53'0 0.0
2016-May-02 11:31N 57°41' E 011°53'0 0.0
2016-May-02 10:31N 57°41' E 011°53'0 0.0
2016-May-02 09:31N 57°41' E 011°53'0 0.0
2016-May-02 08:31N 57°41' E 011°53'0 0.0
2016-May-02 07:31N 57°41' E 011°53'0 0.0
2016-May-02 06:31N 57°41' E 011°53'0 0.0
2016-May-02 05:31N 57°41' E 011°53'0 0.0
2016-May-02 04:31N 57°41' E 011°53'0 0.0
2016-May-02 03:31N 57°41' E 011°53'0 0.0
2016-May-02 02:31N 57°41' E 011°53'0 0.0
2016-May-02 01:31N 57°41' E 011°53'0 0.0
2016-May-02 00:31N 57°41' E 011°53'0 0.0
2016-May-01 23:31N 57°41' E 011°53'0 0.0
2016-May-01 22:31N 57°41' E 011°53'0 0.0
2016-May-01 21:28N 57°41' E 011°53'0 0.0
2016-May-01 20:31N 57°41' E 011°53'0 0.0
2016-May-01 19:31N 57°41' E 011°53'0 0.0
2016-May-01 18:31N 57°41' E 011°53'0 0.0
2016-May-01 17:31N 57°41' E 011°53'0 0.0
2016-May-01 16:31N 57°41' E 011°53'0 0.0
2016-May-01 15:31N 57°41' E 011°53'0 0.0
2016-May-01 14:31N 57°41' E 011°53'0 0.0
2016-May-01 13:31N 57°41' E 011°53'0 0.0
2016-May-01 12:31N 57°41' E 011°53'0 0.0
2016-May-01 11:31N 57°41' E 011°53'0 0.0
2016-May-01 10:31N 57°41' E 011°53'0 0.0
2016-May-01 09:31N 57°41' E 011°53'0 0.0
2016-May-01 08:31N 57°41' E 011°53'0 0.0
2016-May-01 07:31N 57°41' E 011°53'0 0.0
2016-May-01 06:31N 57°41' E 011°53'0 0.0
2016-May-01 05:31N 57°41' E 011°53'0 0.0
2016-May-01 04:31N 57°41' E 011°53'0 0.0
2016-May-01 03:31N 57°41' E 011°53'0 0.0
2016-May-01 02:31N 57°41' E 011°53'0 0.0
2016-May-01 01:31N 57°41' E 011°53'0 0.0
2016-May-01 00:31N 57°41' E 011°53'0 0.0
2016-Apr-30 23:31N 57°41' E 011°53'0 0.0
2016-Apr-30 22:31N 57°41' E 011°53'0 0.0
2016-Apr-30 21:31N 57°41' E 011°53'0 0.0
2016-Apr-30 20:31N 57°41' E 011°53'0 0.0
2016-Apr-30 19:31N 57°41' E 011°53'1 0.7
2016-Apr-30 18:33N 57°41' E 011°52'7 6.8
2016-Apr-30 17:33N 57°37' E 011°41'6 6.1
2016-Apr-30 16:33N 57°36' E 011°30'1110.9
2016-Apr-30 15:33N 57°41' E 011°11'1413.5
2016-Apr-30 14:33N 57°46' E 010°48'1414.4
2016-Apr-30 13:33N 57°47' E 010°21'29213.6
2016-Apr-29 16:06N 54°06' E 004°41'914.0
2016-Apr-29 15:26N 53°57' E 004°37'16214.2
2016-Apr-29 04:03N 51°36' E 002°24'815.3
2016-Apr-29 03:34N 51°31' E 002°16'1514.9
2016-Apr-29 02:33N 51°17' E 002°07'1514.7
2016-Apr-29 01:33N 51°08' E 001°48'1514.8
2016-Apr-29 00:33N 50°57' E 001°32'5413.2
2016-Apr-28 20:30N 50°23' E 000°27'1313.5
2016-Apr-28 19:33N 50°20' E 000°08'1313.3
2016-Apr-28 18:33N 50°17' W 000°13'11613.8
2016-Apr-28 10:09N 49°47' W 003°07'1014.1
2016-Apr-28 09:28N 49°44' W 003°21'4113.9
2016-Apr-28 06:33N 49°50' W 004°23'1414.1
2016-Apr-28 05:33N 49°49' W 004°45'1514.0
2016-Apr-28 04:28N 49°50' W 005°09'1813.7
2016-Apr-28 03:08N 49°52' W 005°37'2910.5
2016-Apr-28 00:24N 50°17' W 005°60'910.3
2016-Apr-27 23:29N 50°26' W 005°57'1414.5
2016-Apr-27 22:33N 50°39' W 005°50'1414.3
2016-Apr-27 21:34N 50°52' W 005°42'1413.9
2016-Apr-27 20:33N 51°05' W 005°34'  

Dump ship's entire track history